Time;durP1;ratioP1;P1;durP2;ratioP2;P2;SDS_P1;SDS_P2;PMS_P1;PMS_P2;Temp;Humidity;BMP_temperature;BMP_pressure;BME280_temperature;BME280_humidity;BME280_pressure;Samples;Min_cycle;Max_cycle;Signal;HPM_P1;HPM_P2
2022/09/07 00:00:33;;;;;;;5.90;2.33;;;17.30;99.90;;;;;;4993656;28;20208;-77
2022/09/07 00:02:59;;;;;;;4.87;2.10;;;17.30;99.90;;;;;;4994007;28;20438;-76
2022/09/07 00:05:27;;;;;;;5.63;1.93;;;17.30;99.90;;;;;;4994005;28;20454;-76
2022/09/07 00:07:53;;;;;;;6.97;2.00;;;17.40;99.90;;;;;;4993926;28;20398;-75
2022/09/07 00:10:19;;;;;;;8.40;3.17;;;17.40;99.90;;;;;;4993347;28;20823;-75
2022/09/07 00:12:45;;;;;;;6.67;1.93;;;17.50;99.90;;;;;;4993846;28;20953;-75
2022/09/07 00:15:11;;;;;;;7.40;2.10;;;17.50;99.90;;;;;;4994032;28;20510;-75
2022/09/07 00:17:37;;;;;;;5.30;2.20;;;17.60;99.90;;;;;;4992590;28;20653;-75
2022/09/07 00:20:05;;;;;;;6.10;2.63;;;17.70;99.90;;;;;;4993538;28;20427;-74
2022/09/07 00:22:31;;;;;;;9.80;2.37;;;17.70;99.90;;;;;;4993911;28;20426;-75
2022/09/07 00:24:57;;;;;;;2.23;2.03;;;17.60;99.90;;;;;;4993998;28;20423;-74
2022/09/07 00:27:23;;;;;;;4.80;3.23;;;17.60;99.90;;;;;;4992772;28;20190;-74
2022/09/07 00:29:48;;;;;;;7.40;2.10;;;17.70;99.90;;;;;;4993545;28;20208;-74
2022/09/07 00:32:14;;;;;;;4.50;1.83;;;17.70;99.90;;;;;;4993741;28;20195;-75
2022/09/07 00:34:40;;;;;;;6.03;1.80;;;17.80;99.90;;;;;;4993779;28;20200;-75
2022/09/07 00:37:06;;;;;;;9.47;1.87;;;17.80;99.90;;;;;;4993781;28;20447;-75
2022/09/07 00:39:32;;;;;;;3.90;1.93;;;17.70;99.90;;;;;;4993825;28;20412;-74
2022/09/07 00:41:58;;;;;;;5.10;2.10;;;17.70;99.90;;;;;;4993275;28;20230;-74
2022/09/07 00:44:42;;;;;;;5.27;2.07;;;17.80;99.90;;;;;;4992426;28;20438;-73
2022/09/07 00:47:23;;;;;;;2.97;1.50;;;17.80;99.90;;;;;;4993666;28;20179;-75
2022/09/07 00:49:55;;;;;;;3.83;1.67;;;17.80;99.90;;;;;;4993227;28;20509;-75
2022/09/07 00:52:23;;;;;;;4.00;1.93;;;17.60;99.90;;;;;;4993575;28;20485;-74
2022/09/07 00:54:52;;;;;;;3.40;1.70;;;17.60;99.90;;;;;;4993394;28;20867;-75
2022/09/07 00:57:19;;;;;;;2.60;1.60;;;17.70;99.90;;;;;;4992227;28;20444;-75
2022/09/07 00:59:48;;;;;;;5.90;1.60;;;17.70;99.90;;;;;;4993247;28;20427;-75
2022/09/07 01:02:15;;;;;;;2.43;1.90;;;17.60;99.90;;;;;;4993533;28;20509;-74
2022/09/07 01:04:46;;;;;;;3.00;1.70;;;17.50;99.90;;;;;;4996316;28;20827;-74
2022/09/07 01:07:12;;;;;;;2.93;1.77;;;17.60;99.90;;;;;;4997181;28;20394;-75
2022/09/07 01:09:39;;;;;;;3.80;1.60;;;17.60;99.90;;;;;;4996999;28;20505;-75
2022/09/07 01:12:05;;;;;;;4.30;2.40;;;17.70;99.90;;;;;;4995520;28;20196;-74
2022/09/07 01:14:36;;;;;;;2.80;1.90;;;17.80;99.90;;;;;;4997076;28;20411;-74
2022/09/07 01:17:10;;;;;;;3.57;1.93;;;17.80;99.90;;;;;;4995546;28;20645;-75
2022/09/07 01:19:44;;;;;;;4.17;2.00;;;17.80;99.90;;;;;;4996981;28;20407;-74
2022/09/07 01:22:45;;;;;;;3.87;1.83;;;17.80;99.90;;;;;;4995717;28;20434;-75
2022/09/07 01:25:38;;;;;;;3.20;2.90;;;17.70;99.90;;;;;;4960695;28;20429;-74
2022/09/07 01:28:19;;;;;;;3.20;2.67;;;17.60;99.90;;;;;;4997054;28;20378;-74
2022/09/07 01:30:54;;;;;;;2.80;2.37;;;17.60;99.90;;;;;;4996301;28;20470;-74
2022/09/07 01:33:51;;;;;;;3.67;3.00;;;17.60;99.90;;;;;;4996748;28;20411;-74
2022/09/07 01:36:33;;;;;;;3.43;2.93;;;17.60;99.90;;;;;;4997000;28;20490;-74
2022/09/07 01:39:02;;;;;;;6.67;3.77;;;17.60;99.90;;;;;;4996798;28;20776;-75
2022/09/07 01:41:43;;;;;;;4.73;3.90;;;17.60;99.90;;;;;;4996227;28;20435;-75
2022/09/07 01:44:15;;;;;;;5.07;3.83;;;17.60;99.90;;;;;;4996749;28;20771;-75
2022/09/07 01:46:56;;;;;;;5.80;3.47;;;17.70;99.90;;;;;;4996741;28;20411;-75
2022/09/07 01:49:27;;;;;;;8.67;4.43;;;17.70;99.90;;;;;;4996404;28;20418;-75
2022/09/07 01:52:02;;;;;;;9.30;4.50;;;17.60;99.90;;;;;;4996189;28;20780;-75
2022/09/07 01:54:31;;;;;;;5.57;4.43;;;17.50;99.90;;;;;;4996332;28;20442;-75
2022/09/07 01:57:02;;;;;;;6.83;5.20;;;17.40;99.90;;;;;;4996228;28;20427;-75
2022/09/07 01:59:36;;;;;;;8.10;5.60;;;17.50;99.90;;;;;;4995157;28;20427;-75
2022/09/07 02:02:09;;;;;;;8.43;5.57;;;17.60;99.90;;;;;;4995909;28;20935;-75
2022/09/07 02:04:38;;;;;;;4.70;4.30;;;17.70;99.90;;;;;;4996295;28;20451;-75
2022/09/07 02:07:24;;;;;;;6.50;4.67;;;17.60;99.90;;;;;;4995989;28;20443;-75
2022/09/07 02:10:01;;;;;;;8.43;5.13;;;17.60;99.90;;;;;;4995655;28;20463;-75
2022/09/07 02:12:40;;;;;;;6.90;5.60;;;17.60;99.90;;;;;;4995951;28;20771;-75
2022/09/07 02:15:13;;;;;;;9.67;5.90;;;17.50;99.90;;;;;;4994858;28;20498;-74
2022/09/07 02:17:44;;;;;;;8.27;4.93;;;17.50;99.90;;;;;;4994565;28;20932;-75
2022/09/07 02:20:30;;;;;;;9.13;5.10;;;17.50;99.90;;;;;;4995496;28;20426;-75
2022/09/07 02:22:59;;;;;;;5.00;4.60;;;17.40;99.90;;;;;;4995816;28;20423;-75
2022/09/07 02:25:31;;;;;;;9.43;5.57;;;17.40;99.90;;;;;;4994444;28;20482;-75
2022/09/07 02:28:06;;;;;;;5.73;4.13;;;17.40;99.90;;;;;;4996033;28;20424;-75
2022/09/07 02:30:32;;;;;;;7.43;5.33;;;17.40;99.90;;;;;;4995574;28;20470;-74
2022/09/07 02:32:58;;;;;;;8.20;5.50;;;17.30;99.90;;;;;;4995586;28;20423;-75
2022/09/07 02:35:24;;;;;;;6.73;5.10;;;17.40;99.90;;;;;;4994597;28;20435;-75
2022/09/07 02:37:51;;;;;;;5.83;5.20;;;17.40;99.90;;;;;;4995626;28;20255;-75
2022/09/07 02:40:17;;;;;;;13.53;6.40;;;17.30;99.90;;;;;;4995313;28;20184;-75
2022/09/07 02:42:46;;;;;;;10.03;7.57;;;17.30;99.90;;;;;;4994282;28;20435;-74
2022/09/07 02:45:14;;;;;;;10.93;7.57;;;17.30;99.90;;;;;;4995512;28;20759;-75
2022/09/07 02:47:50;;;;;;;13.27;9.80;;;17.30;99.90;;;;;;4994210;28;20426;-74
2022/09/07 02:50:25;;;;;;;14.30;12.50;;;17.20;99.90;;;;;;4993696;28;20462;-74
2022/09/07 02:53:23;;;;;;;22.30;15.53;;;17.20;99.90;;;;;;4995461;28;20421;-75
2022/09/07 02:56:18;;;;;;;18.70;16.80;;;17.10;99.90;;;;;;4995144;28;20427;-75
2022/09/07 02:58:54;;;;;;;22.47;20.13;;;17.10;99.90;;;;;;4995181;28;20419;-75
2022/09/07 03:01:26;;;;;;;21.30;18.90;;;17.10;99.90;;;;;;4994763;28;20426;-74
2022/09/07 03:04:04;;;;;;;23.00;19.60;;;17.00;99.90;;;;;;4993731;28;20419;-74
2022/09/07 03:06:44;;;;;;;24.43;20.33;;;17.00;99.90;;;;;;4994959;28;20411;-74
2022/09/07 03:09:15;;;;;;;20.17;18.07;;;16.90;99.90;;;;;;4994848;28;20425;-74
2022/09/07 03:11:41;;;;;;;21.60;18.13;;;16.90;99.90;;;;;;4994321;28;20470;-75
2022/09/07 03:14:11;;;;;;;19.37;17.47;;;16.80;99.90;;;;;;4994754;28;20453;-74
2022/09/07 03:16:37;;;;;;;18.07;16.17;;;16.90;99.90;;;;;;4994797;28;20854;-75
2022/09/07 03:19:03;;;;;;;18.77;16.53;;;16.80;99.90;;;;;;4994704;28;20489;-75
2022/09/07 03:21:30;;;;;;;24.63;15.73;;;16.80;99.90;;;;;;4994474;28;20700;-74
2022/09/07 03:23:56;;;;;;;17.37;15.67;;;16.80;99.90;;;;;;4994566;28;20784;-75
2022/09/07 03:26:26;;;;;;;17.43;13.80;;;16.70;99.90;;;;;;4994332;28;20424;-75
2022/09/07 03:28:52;;;;;;;15.27;12.60;;;16.60;99.90;;;;;;4994906;28;20271;-75
2022/09/07 03:31:18;;;;;;;16.57;13.37;;;16.70;99.90;;;;;;4994261;28;20471;-75
2022/09/07 03:33:44;;;;;;;14.57;12.40;;;16.70;99.90;;;;;;4993180;28;20765;-75
2022/09/07 03:36:10;;;;;;;14.07;12.67;;;16.80;99.90;;;;;;4994406;28;20422;-75
2022/09/07 03:38:35;;;;;;;16.40;12.53;;;16.70;99.90;;;;;;4994476;28;20184;-75
2022/09/07 03:41:06;;;;;;;13.93;12.17;;;16.70;99.90;;;;;;4992910;28;20677;-75
2022/09/07 03:43:32;;;;;;;12.13;10.97;;;16.70;99.90;;;;;;4994620;28;20192;-75
2022/09/07 03:46:00;;;;;;;10.93;9.83;;;16.70;99.90;;;;;;4993618;28;20509;-75
2022/09/07 03:48:26;;;;;;;13.20;9.40;;;16.70;99.90;;;;;;4994205;28;20427;-74
2022/09/07 03:51:04;;;;;;;8.90;8.00;;;16.60;99.90;;;;;;4992397;28;20471;-75
2022/09/07 03:53:33;;;;;;;10.73;9.60;;;16.60;99.90;;;;;;4994301;28;20389;-75
2022/09/07 03:56:06;;;;;;;13.07;10.30;;;16.60;99.90;;;;;;4993900;28;20458;-77
2022/09/07 03:58:33;;;;;;;8.83;7.40;;;16.70;99.90;;;;;;4994200;28;20967;-75
2022/09/07 04:01:04;;;;;;;7.40;6.70;;;16.50;99.90;;;;;;4993667;28;20466;-75
2022/09/07 04:03:30;;;;;;;8.83;7.57;;;16.40;99.90;;;;;;4994242;28;20502;-75
2022/09/07 04:05:58;;;;;;;7.73;6.97;;;16.40;99.90;;;;;;4993948;28;20486;-75
2022/09/07 04:08:26;;;;;;;12.13;7.80;;;16.30;99.90;;;;;;4993865;28;20192;-75
2022/09/07 04:10:51;;;;;;;7.90;6.97;;;16.30;99.90;;;;;;4993476;28;20467;-74
2022/09/07 04:13:17;;;;;;;9.00;7.80;;;16.40;99.90;;;;;;4993977;28;20419;-75
2022/09/07 04:15:43;;;;;;;10.00;8.53;;;16.40;99.90;;;;;;4993861;28;20180;-74
2022/09/07 04:18:08;;;;;;;10.43;9.17;;;16.30;99.90;;;;;;4993764;28;20172;-76
2022/09/07 04:20:34;;;;;;;12.60;8.83;;;16.30;99.90;;;;;;4992076;28;20215;-75
2022/09/07 04:22:59;;;;;;;11.67;9.10;;;16.30;99.90;;;;;;4992755;28;20187;-75
2022/09/07 04:25:25;;;;;;;10.73;9.63;;;16.30;99.90;;;;;;4993823;28;20191;-75
2022/09/07 04:27:51;;;;;;;14.00;9.03;;;16.40;99.90;;;;;;4993829;28;20668;-74
2022/09/07 04:30:17;;;;;;;13.17;10.70;;;16.50;99.90;;;;;;4993395;28;20208;-75
2022/09/07 04:32:44;;;;;;;15.83;10.80;;;16.40;99.90;;;;;;4993952;28;20184;-75
2022/09/07 04:35:10;;;;;;;17.13;12.07;;;16.40;99.90;;;;;;4992689;28;20243;-74
2022/09/07 04:37:36;;;;;;;17.37;11.77;;;16.30;99.90;;;;;;4992781;28;20411;-75
2022/09/07 04:40:02;;;;;;;16.93;12.03;;;16.30;99.90;;;;;;4997184;28;20184;-74
2022/09/07 04:42:28;;;;;;;15.53;12.67;;;16.30;99.90;;;;;;4997680;28;20606;-74
2022/09/07 04:44:54;;;;;;;15.37;13.13;;;16.40;99.90;;;;;;4997525;28;20777;-74
2022/09/07 04:47:20;;;;;;;18.33;13.57;;;16.30;99.90;;;;;;4997615;28;20394;-74
2022/09/07 04:49:49;;;;;;;18.13;13.30;;;16.30;99.90;;;;;;4996073;28;20211;-74
2022/09/07 04:52:16;;;;;;;18.90;13.57;;;16.40;99.90;;;;;;4996428;28;20196;-74
2022/09/07 04:54:42;;;;;;;16.83;13.80;;;16.50;99.90;;;;;;4979911;28;20482;-75
2022/09/07 04:57:09;;;;;;;19.97;14.23;;;16.50;99.90;;;;;;4996624;28;20466;-74
2022/09/07 04:59:34;;;;;;;19.30;13.97;;;16.50;99.90;;;;;;4997490;28;20172;-76
2022/09/07 05:02:00;;;;;;;18.73;15.20;;;16.50;99.90;;;;;;4996537;28;20450;-75
2022/09/07 05:04:25;;;;;;;16.87;13.23;;;16.50;99.90;;;;;;4996205;28;20187;-74
2022/09/07 05:06:53;;;;;;;16.20;13.63;;;16.50;99.90;;;;;;4996271;28;20199;-75
2022/09/07 05:09:18;;;;;;;17.10;14.90;;;16.60;99.90;;;;;;4997223;28;20255;-74
2022/09/07 05:11:44;;;;;;;20.80;15.37;;;16.70;99.90;;;;;;4996706;28;20612;-74
2022/09/07 05:14:10;;;;;;;26.43;14.93;;;16.70;99.90;;;;;;4997192;28;20180;-74
2022/09/07 05:16:35;;;;;;;19.33;12.73;;;16.80;99.90;;;;;;4996819;28;20185;-75
2022/09/07 05:19:03;;;;;;;21.20;13.87;;;16.70;99.90;;;;;;4995690;28;20292;-74
2022/09/07 05:21:33;;;;;;;15.60;13.27;;;16.80;99.90;;;;;;4996571;28;20204;-74
2022/09/07 05:24:00;;;;;;;17.50;13.63;;;16.80;99.90;;;;;;4996928;28;20431;-75
2022/09/07 05:26:28;;;;;;;16.40;14.50;;;16.90;99.90;;;;;;4996928;28;20433;-74
2022/09/07 05:28:54;;;;;;;20.27;13.27;;;16.70;99.90;;;;;;4996943;28;20482;-75
2022/09/07 05:31:21;;;;;;;15.47;13.87;;;16.90;99.90;;;;;;4996461;28;20474;-74
2022/09/07 05:33:52;;;;;;;16.00;14.00;;;16.90;99.90;;;;;;4996918;28;20478;-74
2022/09/07 05:36:19;;;;;;;15.80;14.07;;;17.00;99.90;;;;;;4996944;28;20411;-74
2022/09/07 05:38:45;;;;;;;15.50;11.90;;;17.00;99.90;;;;;;4995313;28;20426;-74
2022/09/07 05:41:13;;;;;;;13.90;12.50;;;16.80;99.90;;;;;;4996076;28;20471;-74
2022/09/07 05:43:38;;;;;;;15.13;13.23;;;16.80;99.90;;;;;;4995212;28;20434;-74
2022/09/07 05:46:04;;;;;;;14.87;13.17;;;16.80;99.90;;;;;;4996620;28;20424;-74
2022/09/07 05:48:30;;;;;;;13.63;12.13;;;16.80;99.90;;;;;;4995542;28;20188;-74
2022/09/07 05:50:55;;;;;;;19.00;13.40;;;16.90;99.90;;;;;;4995704;28;20732;-74
2022/09/07 05:53:21;;;;;;;15.13;13.53;;;16.90;99.90;;;;;;4995174;28;20649;-74
2022/09/07 05:55:49;;;;;;;15.50;13.83;;;16.90;99.90;;;;;;4996431;28;20282;-75
2022/09/07 05:58:15;;;;;;;15.50;13.90;;;16.90;99.90;;;;;;4996443;28;20181;-74
2022/09/07 06:00:41;;;;;;;16.00;14.30;;;16.90;99.90;;;;;;4995910;28;20797;-74
2022/09/07 06:03:07;;;;;;;15.37;13.90;;;17.00;99.90;;;;;;4996215;28;20419;-74
2022/09/07 06:05:33;;;;;;;15.90;13.70;;;17.00;99.90;;;;;;4996183;28;20434;-74
2022/09/07 06:07:59;;;;;;;15.50;13.57;;;17.00;99.90;;;;;;4996144;28;20184;-74
2022/09/07 06:10:25;;;;;;;18.60;13.30;;;16.90;99.90;;;;;;4995647;28;20210;-74
2022/09/07 06:12:51;;;;;;;16.27;14.70;;;17.00;99.90;;;;;;4995881;28;20186;-74
2022/09/07 06:15:17;;;;;;;14.80;13.30;;;17.00;99.90;;;;;;4995761;28;20481;-74
2022/09/07 06:17:42;;;;;;;15.03;13.53;;;16.90;99.90;;;;;;4995918;28;20423;-74
2022/09/07 06:20:08;;;;;;;14.73;13.10;;;17.00;99.90;;;;;;4995465;28;20913;-73
2022/09/07 06:22:35;;;;;;;14.13;12.40;;;17.10;99.90;;;;;;4995792;28;20180;-74
2022/09/07 06:25:01;;;;;;;16.00;12.67;;;17.20;99.90;;;;;;4995682;28;20801;-75
2022/09/07 06:27:27;;;;;;;14.07;12.67;;;17.30;99.90;;;;;;4994290;28;20419;-74
2022/09/07 06:29:53;;;;;;;13.93;12.40;;;17.50;99.90;;;;;;4995241;28;20750;-74
2022/09/07 06:32:18;;;;;;;11.07;9.70;;;17.60;99.90;;;;;;4995615;28;20435;-74
2022/09/07 06:34:44;;;;;;;11.73;8.50;;;17.60;99.90;;;;;;4994512;28;20180;-74
2022/09/07 06:37:10;;;;;;;9.40;7.80;;;17.60;99.90;;;;;;4995879;28;20176;-75
2022/09/07 06:39:36;;;;;;;8.83;7.93;;;17.70;99.90;;;;;;4995730;28;20176;-75
2022/09/07 06:42:04;;;;;;;7.70;7.00;;;17.70;99.90;;;;;;4995125;28;20445;-74
2022/09/07 06:44:30;;;;;;;9.47;6.30;;;17.80;99.90;;;;;;4994621;28;20184;-74
2022/09/07 06:46:56;;;;;;;7.30;6.47;;;17.90;99.90;;;;;;4995570;28;20751;-74
2022/09/07 06:49:23;;;;;;;6.23;5.33;;;18.00;99.90;;;;;;4995382;28;20507;-74
2022/09/07 06:51:49;;;;;;;4.40;4.00;;;18.10;99.90;;;;;;4994892;28;20482;-74
2022/09/07 06:54:15;;;;;;;7.37;4.73;;;18.10;99.90;;;;;;4994021;28;20852;-74
2022/09/07 06:56:41;;;;;;;6.20;4.20;;;18.20;99.90;;;;;;4995312;28;20178;-75
2022/09/07 06:59:06;;;;;;;4.87;4.40;;;18.10;99.90;;;;;;4995220;28;20187;-74
2022/09/07 07:01:32;;;;;;;4.80;3.70;;;17.90;99.90;;;;;;4994159;28;20673;-74
2022/09/07 07:03:59;;;;;;;4.37;3.97;;;18.20;99.90;;;;;;4993957;28;20685;-74
2022/09/07 07:06:35;;;;;;;4.63;3.47;;;18.20;99.90;;;;;;4995247;28;20254;-75
2022/09/07 07:09:03;;;;;;;4.03;3.70;;;18.20;99.90;;;;;;4993658;28;20427;-74
2022/09/07 07:11:30;;;;;;;6.77;4.60;;;18.30;99.90;;;;;;4994463;28;20877;-74
2022/09/07 07:13:56;;;;;;;5.27;3.93;;;18.30;99.90;;;;;;4994644;28;20426;-75
2022/09/07 07:16:23;;;;;;;3.47;3.17;;;18.50;99.90;;;;;;4994853;28;20469;-74
2022/09/07 07:18:51;;;;;;;4.63;3.77;;;18.60;99.90;;;;;;4993422;28;20427;-74
2022/09/07 07:21:17;;;;;;;3.67;3.20;;;18.50;99.90;;;;;;4994114;28;20439;-74
2022/09/07 07:23:43;;;;;;;4.00;3.40;;;18.60;99.90;;;;;;4994467;28;20934;-76
2022/09/07 07:26:15;;;;;;;3.67;3.00;;;18.90;99.90;;;;;;4994600;28;20473;-74
2022/09/07 07:28:46;;;;;;;5.23;3.27;;;19.00;99.90;;;;;;4994039;28;20435;-75
2022/09/07 07:31:12;;;;;;;3.87;3.20;;;18.80;99.90;;;;;;4994145;28;20477;-74
2022/09/07 07:33:38;;;;;;;6.53;3.50;;;18.80;99.90;;;;;;4994506;28;20506;-75
2022/09/07 07:36:15;;;;;;;3.97;2.90;;;18.80;99.90;;;;;;4993303;28;20530;-74
2022/09/07 07:38:44;;;;;;;4.13;3.60;;;19.10;99.90;;;;;;4994593;28;20959;-74
2022/09/07 07:41:11;;;;;;;5.70;3.93;;;19.30;99.90;;;;;;4994029;28;20435;-74
2022/09/07 07:43:37;;;;;;;4.30;3.30;;;19.20;99.90;;;;;;4994361;28;20411;-79
2022/09/07 07:46:03;;;;;;;5.27;3.23;;;19.60;99.90;;;;;;4994143;28;20932;-78
2022/09/07 07:48:30;;;;;;;5.40;3.67;;;19.40;99.90;;;;;;4994302;28;20503;-79
2022/09/07 07:51:00;;;;;;;6.23;3.50;;;19.40;99.90;;;;;;4992667;28;20467;-78
2022/09/07 07:53:28;;;;;;;5.13;3.03;;;19.40;99.90;;;;;;4994343;28;20469;-78
2022/09/07 07:55:57;;;;;;;3.53;3.03;;;19.40;99.90;;;;;;4992620;28;20435;-79
2022/09/07 07:58:23;;;;;;;3.77;2.60;;;19.50;99.90;;;;;;4994312;28;20418;-79
2022/09/07 08:00:49;;;;;;;3.97;2.63;;;19.50;99.90;;;;;;4993809;28;20443;-78
2022/09/07 08:03:14;;;;;;;3.53;2.83;;;19.40;99.90;;;;;;4994269;28;20834;-79
2022/09/07 08:05:40;;;;;;;4.00;2.10;;;19.40;99.90;;;;;;4994175;28;20633;-78
2022/09/07 08:08:06;;;;;;;7.83;3.10;;;19.40;99.90;;;;;;4993876;28;20184;-79
2022/09/07 08:10:32;;;;;;;6.07;2.13;;;19.40;99.90;;;;;;4993558;28;20212;-79
2022/09/07 08:12:58;;;;;;;3.30;2.03;;;19.50;99.90;;;;;;4993982;28;20663;-79
2022/09/07 08:15:23;;;;;;;3.30;1.87;;;19.50;99.90;;;;;;4993944;28;20407;-79
2022/09/07 08:17:49;;;;;;;3.03;1.67;;;19.60;99.90;;;;;;4993975;28;20212;-78
2022/09/07 08:20:15;;;;;;;5.63;1.70;;;19.80;99.90;;;;;;4993442;28;20176;-79
2022/09/07 08:22:41;;;;;;;4.13;1.70;;;19.90;99.90;;;;;;4994011;28;20238;-79
2022/09/07 08:25:07;;;;;;;8.50;1.80;;;19.90;99.90;;;;;;4993775;28;20419;-79
2022/09/07 08:27:34;;;;;;;2.97;1.70;;;19.90;99.90;;;;;;4993932;28;20783;-79
2022/09/07 08:30:00;;;;;;;3.57;2.10;;;20.10;99.90;;;;;;4993423;28;20869;-79
2022/09/07 08:32:27;;;;;;;4.50;2.20;;;20.10;99.90;;;;;;4993564;28;20513;-79
2022/09/07 08:34:53;;;;;;;6.80;1.80;;;20.40;99.90;;;;;;4993828;28;20438;-79
2022/09/07 08:37:19;;;;;;;1.70;1.50;;;20.60;99.90;;;;;;4993824;28;20422;-78
2022/09/07 08:39:45;;;;;;;2.07;1.53;;;20.40;99.90;;;;;;4993438;28;20175;-80
2022/09/07 08:42:17;;;;;;;8.73;2.20;;;20.30;99.90;;;;;;4992656;28;20468;-80
2022/09/07 08:45:24;;;;;;;10.30;2.30;;;20.30;99.90;;;;;;4993605;28;20187;-78
2022/09/07 08:47:51;;;;;;;6.50;1.60;;;20.60;99.90;;;;;;4952735;29;20465;-81
2022/09/07 08:50:27;;;;;;;1.50;1.40;;;21.20;99.90;;;;;;4985001;28;20466;-78
2022/09/07 08:53:12;;;;;;;2.43;1.70;;;21.70;99.90;;;;;;4992593;28;20434;-78
2022/09/07 08:55:49;;;;;;;5.53;1.80;;;21.90;99.90;;;;;;4993667;28;20977;-79
2022/09/07 08:58:30;;;;;;;4.63;1.77;;;22.40;99.90;;;;;;4993620;28;20502;-80
2022/09/07 09:00:55;;;;;;;2.97;1.57;;;22.70;99.90;;;;;;4993065;28;20434;-75
2022/09/07 09:03:30;;;;;;;2.53;1.60;;;23.20;99.90;;;;;;4993589;28;20416;-75
2022/09/07 09:06:14;;;;;;;3.00;1.37;;;23.60;99.90;;;;;;4993522;28;20182;-75
2022/09/07 09:09:08;;;;;;;3.20;1.73;;;23.00;99.90;;;;;;4993411;28;20506;-75
2022/09/07 09:11:48;;;;;;;2.80;1.27;;;23.00;99.90;;;;;;4992500;28;20466;-76
2022/09/07 09:14:26;;;;;;;1.60;1.27;;;23.20;99.90;;;;;;4993476;28;20410;-76
2022/09/07 09:17:02;;;;;;;3.67;1.57;;;23.70;99.90;;;;;;4993184;28;20410;-74
2022/09/07 09:20:01;;;;;;;2.73;1.50;;;24.20;99.90;;;;;;4993374;28;20417;-75
2022/09/07 09:22:27;;;;;;;2.20;1.63;;;24.90;99.90;;;;;;4993136;28;21004;-76
2022/09/07 09:25:04;;;;;;;1.80;1.37;;;24.80;99.90;;;;;;4994803;28;20418;-76
2022/09/07 09:27:30;;;;;;;3.57;1.47;;;24.50;99.90;;;;;;4997034;28;20398;-76
2022/09/07 09:29:55;;;;;;;2.77;1.17;;;24.40;99.90;;;;;;4996443;28;20791;-74
2022/09/07 09:32:35;;;;;;;3.20;1.63;;;24.70;99.90;;;;;;4996768;28;20202;-76
2022/09/07 09:35:14;;;;;;;2.80;1.40;;;25.20;99.90;;;;;;4996569;28;20254;-76
2022/09/07 09:37:41;;;;;;;4.27;1.70;;;25.30;99.90;;;;;;4996900;28;20443;-77
2022/09/07 09:40:28;;;;;;;2.87;1.90;;;25.40;99.90;;;;;;4996470;28;20415;-74
2022/09/07 09:43:22;;;;;;;3.40;1.40;;;25.30;99.90;;;;;;4996511;28;20788;-75
2022/09/07 09:45:51;;;;;;;3.00;1.50;;;25.00;99.90;;;;;;4992559;28;20451;-76
2022/09/07 09:48:30;;;;;;;3.67;1.50;;;25.30;99.90;;;;;;4996424;28;20421;-75
2022/09/07 09:50:58;;;;;;;1.93;1.70;;;25.10;99.90;;;;;;4995872;28;20473;-75
2022/09/07 09:54:04;;;;;;;2.97;1.60;;;25.10;99.90;;;;;;4996369;28;20418;-76
2022/09/07 09:56:42;;;;;;;3.23;1.50;;;25.50;99.90;;;;;;4996745;28;20442;-76
2022/09/07 09:59:17;;;;;;;2.97;1.60;;;25.10;99.90;;;;;;4995397;28;20869;-76
2022/09/07 10:01:45;;;;;;;4.67;1.83;;;24.70;99.90;;;;;;4996099;28;20437;-76
2022/09/07 10:04:37;;;;;;;7.73;2.10;;;24.40;99.90;;;;;;4996406;28;20418;-75
2022/09/07 10:07:11;;;;;;;3.60;2.10;;;24.60;99.90;;;;;;4991938;28;20978;-75
2022/09/07 10:09:40;;;;;;;2.63;1.80;;;24.50;99.90;;;;;;4996064;28;20875;-77
2022/09/07 10:12:18;;;;;;;6.27;1.80;;;24.30;99.90;;;;;;4994848;28;20441;-76
2022/09/07 10:14:46;;;;;;;2.77;1.90;;;24.70;99.90;;;;;;4996047;28;20402;-76
2022/09/07 10:17:39;;;;;;;4.03;1.80;;;24.50;99.90;;;;;;4994489;28;20464;-75
2022/09/07 10:20:20;;;;;;;4.57;1.90;;;24.20;99.90;;;;;;4993450;28;20430;-75
2022/09/07 10:22:57;;;;;;;5.03;2.07;;;24.00;99.90;;;;;;4995919;28;20469;-75
2022/09/07 10:25:28;;;;;;;3.00;1.90;;;24.70;99.90;;;;;;4994551;28;20415;-74
2022/09/07 10:28:21;;;;;;;4.23;2.00;;;25.50;99.90;;;;;;4995781;28;20868;-75
2022/09/07 10:31:17;;;;;;;3.20;1.37;;;25.60;99.90;;;;;;4991640;28;20502;-75
2022/09/07 10:33:51;;;;;;;3.20;1.90;;;25.30;99.90;;;;;;4995768;28;20760;-74
2022/09/07 10:36:42;;;;;;;5.97;2.30;;;25.70;99.90;;;;;;4994550;28;20411;-76
2022/09/07 10:39:19;;;;;;;4.17;2.43;;;25.60;99.90;;;;;;4994389;28;20415;-75
2022/09/07 10:41:48;;;;;;;2.90;1.90;;;26.30;99.90;;;;;;4995088;28;20442;-77
2022/09/07 10:44:25;;;;;;;8.73;2.60;;;26.30;99.90;;;;;;4995330;28;20469;-74
2022/09/07 10:47:15;;;;;;;3.10;1.57;;;25.80;99.90;;;;;;4995434;28;20422;-75
2022/09/07 10:49:52;;;;;;;3.37;1.83;;;25.70;99.90;;;;;;4994148;28;20426;-76
2022/09/07 10:52:31;;;;;;;3.10;2.30;;;25.50;99.90;;;;;;4995358;28;20427;-75
2022/09/07 10:55:18;;;;;;;4.70;2.47;;;25.90;99.90;;;;;;4995232;28;20805;-76
2022/09/07 10:57:58;;;;;;;3.93;2.00;;;25.90;99.90;;;;;;4994208;28;20792;-75
2022/09/07 11:00:28;;;;;;;3.50;2.53;;;26.10;99.90;;;;;;4994878;28;20411;-75
2022/09/07 11:03:24;;;;;;;2.50;2.10;;;26.20;99.90;;;;;;4993833;28;20415;-77
2022/09/07 11:06:00;;;;;;;2.63;1.80;;;25.70;99.90;;;;;;4993928;28;20528;-75
2022/09/07 11:09:06;;;;;;;6.93;2.17;;;25.30;99.90;;;;;;4995165;28;20783;-75
2022/09/07 11:11:39;;;;;;;4.10;2.10;;;25.50;99.90;;;;;;4993239;28;20497;-75
2022/09/07 11:14:13;;;;;;;1.73;1.47;;;26.00;99.90;;;;;;4993923;28;20817;-74
2022/09/07 11:16:48;;;;;;;2.27;2.07;;;26.40;99.90;;;;;;4994812;28;20469;-75
2022/09/07 11:19:20;;;;;;;1.87;1.67;;;26.10;99.90;;;;;;4994954;28;20418;-75
2022/09/07 11:22:21;;;;;;;5.43;2.00;;;25.80;99.90;;;;;;4994319;28;20479;-75
2022/09/07 11:24:59;;;;;;;3.50;1.90;;;25.30;99.90;;;;;;4974736;28;20509;-75
2022/09/07 11:27:36;;;;;;;2.90;1.67;;;25.10;99.90;;;;;;4994547;28;20735;-74
2022/09/07 11:30:27;;;;;;;3.63;1.57;;;25.00;99.90;;;;;;4992784;28;20473;-75
2022/09/07 11:33:11;;;;;;;3.43;2.13;;;24.90;99.90;;;;;;4994384;28;20415;-75
2022/09/07 11:36:01;;;;;;;4.40;2.40;;;25.20;99.90;;;;;;4994307;28;20469;-74
2022/09/07 11:39:02;;;;;;;4.93;2.53;;;25.30;99.90;;;;;;4989318;28;20423;-74
2022/09/07 11:41:33;;;;;;;3.83;2.10;;;25.80;99.90;;;;;;4993755;28;20501;-75
2022/09/07 11:44:17;;;;;;;4.07;1.90;;;25.90;99.90;;;;;;4994450;28;20434;-76
2022/09/07 11:46:46;;;;;;;5.37;1.97;;;26.10;99.90;;;;;;4994469;28;20409;-74
2022/09/07 11:49:21;;;;;;;3.30;1.63;;;26.20;99.90;;;;;;4994420;28;20915;-76
2022/09/07 11:52:00;;;;;;;3.60;2.00;;;26.10;99.90;;;;;;4993685;28;20466;-75
2022/09/07 11:54:34;;;;;;;5.37;1.97;;;26.40;99.90;;;;;;4994512;28;20493;-76
2022/09/07 11:57:35;;;;;;;2.40;1.43;;;26.70;99.90;;;;;;4994113;28;20450;-76
2022/09/07 12:00:13;;;;;;;1.93;1.53;;;26.90;99.90;;;;;;4977280;28;20429;-75
2022/09/07 12:03:03;;;;;;;3.50;1.60;;;27.20;99.90;;;;;;4993091;28;20957;-76
2022/09/07 12:05:44;;;;;;;2.60;1.73;;;27.00;99.90;;;;;;4994345;28;20466;-75
2022/09/07 12:08:24;;;;;;;2.13;1.50;;;26.90;99.90;;;;;;4994229;28;20406;-75
2022/09/07 12:11:12;;;;;;;4.40;1.53;;;26.80;99.90;;;;;;4992571;28;20469;-76
2022/09/07 12:13:52;;;;;;;2.00;1.30;;;26.30;99.90;;;;;;4993938;28;20500;-76
2022/09/07 12:16:28;;;;;;;5.33;1.40;;;26.50;99.90;;;;;;4994067;28;20939;-75
2022/09/07 12:19:16;;;;;;;4.03;1.60;;;27.00;99.90;;;;;;4993909;28;20449;-75
2022/09/07 12:21:53;;;;;;;5.57;1.23;;;27.20;99.90;;;;;;4993439;28;20460;-76
2022/09/07 12:24:42;;;;;;;2.40;1.10;;;27.00;99.90;;;;;;4985071;28;20423;-76
2022/09/07 12:27:27;;;;;;;1.80;1.33;;;27.10;99.90;;;;;;4976893;28;20776;-76
2022/09/07 12:29:55;;;;;;;2.20;1.27;;;27.40;99.90;;;;;;4973616;28;20419;-77
2022/09/07 12:32:46;;;;;;;3.33;1.33;;;27.10;99.90;;;;;;4973935;28;20431;-76
2022/09/07 12:35:32;;;;;;;3.33;1.60;;;26.80;99.90;;;;;;4973907;28;20399;-74
2022/09/07 12:38:29;;;;;;;2.60;1.27;;;27.10;99.90;;;;;;4974316;28;20490;-77
2022/09/07 12:41:00;;;;;;;2.80;1.40;;;27.80;99.90;;;;;;4973751;28;20439;-74
2022/09/07 12:43:48;;;;;;;1.60;1.10;;;28.00;99.90;;;;;;4974255;28;20408;-75
2022/09/07 12:46:38;;;;;;;6.37;1.40;;;28.10;99.90;;;;;;4974111;28;20410;-76
2022/09/07 12:49:15;;;;;;;3.57;1.23;;;28.00;99.90;;;;;;4970151;28;20430;-74
2022/09/07 12:51:41;;;;;;;4.83;1.50;;;28.00;99.90;;;;;;4973919;28;20471;-75
2022/09/07 12:54:36;;;;;;;2.30;1.43;;;28.10;99.90;;;;;;4981834;28;20429;-74
2022/09/07 12:57:31;;;;;;;2.87;1.40;;;28.20;99.90;;;;;;4993462;28;20429;-74
2022/09/07 13:00:18;;;;;;;4.00;1.70;;;28.60;99.90;;;;;;4995260;28;20446;-74
2022/09/07 13:03:00;;;;;;;4.60;1.60;;;28.70;99.90;;;;;;4997401;28;20407;-74
2022/09/07 13:05:32;;;;;;;8.07;1.67;;;28.40;99.90;;;;;;4996439;28;20460;-74
2022/09/07 13:08:13;;;;;;;1.50;1.13;;;27.90;99.90;;;;;;4995970;28;20421;-74